createdAt,value
2023-02-24T07:09:27.419Z,99790.75
2023-02-24T07:11:56.745Z,99797.22
2023-02-24T07:14:27.542Z,99801.41
2023-02-24T07:16:55.730Z,99801.75
2023-02-24T07:19:27.397Z,99807.19
2023-02-24T07:22:00.624Z,99808.44
2023-02-24T07:24:36.306Z,99808.34
2023-02-24T07:27:07.714Z,99812.66
2023-02-24T07:29:36.278Z,99800.56
2023-02-24T07:32:09.084Z,99808.13
2023-02-24T07:34:40.384Z,99803.09
2023-02-24T07:37:09.101Z,99799.38
2023-02-24T07:39:39.240Z,99795.63
2023-02-24T07:42:09.115Z,99799.81
2023-02-24T07:44:36.257Z,99799.16
2023-02-24T07:47:07.921Z,99793.06
2023-02-24T07:49:39.263Z,99799.72
2023-02-24T07:52:09.389Z,99802.84
2023-02-24T07:54:39.451Z,99796.47
2023-02-24T07:57:14.641Z,99809.25
2023-02-24T07:59:47.441Z,99789.56
2023-02-24T08:02:15.522Z,99788.16
2023-02-24T08:04:50.408Z,99793.69
2023-02-24T08:07:24.728Z,99787.22
2023-02-24T08:10:11.934Z,99786.75
2023-02-24T08:12:43.019Z,99775.03
2023-02-24T08:15:17.782Z,99783.03
2023-02-24T08:17:47.573Z,99770.84
2023-02-24T08:20:15.518Z,99769.41
2023-02-24T08:22:46.797Z,99771.22
2023-02-24T08:25:19.385Z,99766.44
2023-02-24T08:28:08.544Z,99760.88
2023-02-24T08:30:47.480Z,99753.59
2023-02-24T08:33:21.377Z,99763.59
2023-02-24T08:36:01.417Z,99761.19
2023-02-24T08:38:40.400Z,99757.31
2023-02-24T08:41:18.434Z,99758.53
2023-02-24T08:43:46.581Z,99753.38
2023-02-24T08:46:21.461Z,99743.22
2023-02-24T08:48:56.376Z,99750.66
2023-02-24T08:51:35.785Z,99745.09
2023-02-24T08:54:11.373Z,99743.53
2023-02-24T08:56:43.772Z,99750.84
2023-02-24T08:59:37.676Z,99737.09
2023-02-24T09:02:23.249Z,99729.97
2023-02-24T09:05:07.770Z,99722.94
2023-02-24T09:07:42.549Z,99715.78
2023-02-24T09:10:19.658Z,99719.38
2023-02-24T09:12:49.213Z,99725.97
2023-02-24T09:15:16.476Z,99719.91
2023-02-24T09:17:45.447Z,99719.09
2023-02-24T09:20:36.450Z,99713.28
2023-02-24T09:23:03.959Z,99713.84
2023-02-24T09:25:49.544Z,99709.94
2023-02-24T09:28:24.702Z,99706.59
2023-02-24T09:30:59.391Z,99695.56
2023-02-24T09:33:39.325Z,99698.38
2023-02-24T09:36:20.669Z,99689.50
2023-02-24T09:39:00.652Z,99686.09
2023-02-24T09:41:54.873Z,99688.59
2023-02-24T09:44:45.096Z,62747.53
2023-02-24T09:47:48.942Z,62747.53
2023-02-24T09:50:48.276Z,62747.53
2023-02-24T09:53:18.307Z,62747.53
2023-02-24T09:56:00.438Z,62747.53
2023-02-24T09:58:53.383Z,62747.53
2023-02-24T10:01:33.640Z,62747.53
2023-02-24T10:04:20.701Z,62747.53
2023-02-24T10:06:58.361Z,62747.53
2023-02-24T10:09:44.003Z,62747.53
2023-02-24T10:12:27.796Z,62747.53
2023-02-24T10:15:32.422Z,62747.53
2023-02-24T10:19:01.343Z,62747.53
2023-02-24T10:22:03.325Z,62747.53
2023-02-24T10:24:47.474Z,62747.53
2023-02-24T10:27:26.885Z,62747.53
2023-02-24T10:30:10.899Z,62747.53
2023-02-24T10:32:52.896Z,62747.53
2023-02-24T10:35:26.222Z,62747.53
2023-02-24T10:37:57.156Z,62747.53
2023-02-24T10:40:44.861Z,62747.53
2023-02-24T10:43:19.648Z,62747.53
2023-02-24T10:45:48.324Z,62747.53
2023-02-24T10:48:40.573Z,62747.53
2023-02-24T10:51:22.205Z,62747.53
2023-02-24T10:54:14.428Z,62747.53
2023-02-24T10:56:44.838Z,62747.53
2023-02-24T10:59:25.476Z,62747.53
2023-02-24T11:02:06.736Z,62747.53
2023-02-24T11:04:58.462Z,62747.53
2023-02-24T11:07:33.714Z,62747.53
2023-02-24T11:10:26.163Z,62747.53
2023-02-24T11:13:13.932Z,62747.53
2023-02-24T11:16:12.814Z,62747.53
2023-02-24T11:18:46.573Z,62747.53
2023-02-24T11:21:16.256Z,62747.53
2023-02-24T11:23:51.315Z,62747.53
2023-02-24T11:26:23.257Z,62747.53
2023-02-24T11:29:36.474Z,62747.53
2023-02-24T11:32:36.573Z,62747.53
2023-02-24T11:35:42.148Z,62747.53
2023-02-24T11:38:31.959Z,62747.53
2023-02-24T11:41:12.074Z,62747.53
2023-02-24T11:43:43.527Z,62747.53
2023-02-24T11:46:17.775Z,62747.53
2023-02-24T11:48:56.919Z,62747.53
2023-02-24T11:51:33.146Z,62747.53
2023-02-24T11:54:15.184Z,62747.53
2023-02-24T11:57:06.282Z,62747.53
2023-02-24T11:59:48.620Z,62747.53
2023-02-24T12:02:52.635Z,62747.53
2023-02-24T12:05:35.038Z,62747.53
2023-02-24T12:08:20.321Z,62747.53
2023-02-24T12:10:54.154Z,62747.53
2023-02-24T12:13:31.373Z,62747.53
2023-02-24T12:16:17.068Z,62747.53
2023-02-24T12:19:04.552Z,62747.53
2023-02-24T12:21:42.356Z,62747.53
2023-02-24T12:24:13.900Z,62747.53
2023-02-24T12:27:12.247Z,62747.53
2023-02-24T12:30:48.633Z,62747.53
2023-02-24T12:33:31.076Z,62747.53
2023-02-24T12:36:25.496Z,62747.53
2023-02-24T12:39:07.116Z,62747.53
2023-02-24T12:41:52.991Z,62747.53
2023-02-24T12:44:42.639Z,62747.53
2023-02-24T12:47:37.687Z,62747.53
2023-02-24T12:50:10.594Z,62747.53
2023-02-24T12:53:06.515Z,62747.53
2023-02-24T12:55:55.476Z,62747.53
2023-02-24T12:58:34.660Z,62747.53
2023-02-24T13:01:07.599Z,62747.53
2023-02-24T13:04:08.144Z,62747.53
2023-02-24T13:06:56.356Z,62747.53
2023-02-24T13:10:16.441Z,62747.53
2023-02-24T13:13:08.048Z,62747.53
2023-02-24T13:15:35.177Z,62747.53
2023-02-24T13:18:02.496Z,62747.53
2023-02-24T13:20:38.140Z,62747.53
2023-02-24T13:23:22.046Z,62747.53
2023-02-24T13:25:55.852Z,62747.53
2023-02-24T13:28:36.488Z,62747.53
2023-02-24T13:31:12.414Z,62747.53
2023-02-24T13:33:43.636Z,62747.53
2023-02-24T13:36:24.390Z,62747.53
2023-02-24T13:39:05.713Z,62747.53
2023-02-24T13:41:32.634Z,62747.53
2023-02-24T13:44:26.861Z,62747.53
2023-02-24T13:47:06.781Z,62747.53
2023-02-24T13:49:51.811Z,62747.53
2023-02-24T13:52:46.859Z,62747.53
2023-02-24T13:55:42.817Z,62747.53
2023-02-24T13:58:40.655Z,62747.53
2023-02-24T14:01:17.310Z,62747.53
2023-02-24T14:04:13.760Z,62747.53
2023-02-24T14:06:45.783Z,62747.53
2023-02-24T14:09:22.684Z,62747.53
2023-02-24T14:11:57.745Z,62747.53
2023-02-24T14:14:25.636Z,62747.53
2023-02-24T14:16:55.278Z,62747.53
2023-02-24T14:19:25.613Z,62747.53
2023-02-24T14:22:00.019Z,62747.53
2023-02-24T14:24:28.401Z,62747.53
2023-02-24T14:27:01.827Z,62747.53
2023-02-24T14:29:43.129Z,62747.53
2023-02-24T14:32:22.504Z,62747.53
2023-02-24T14:34:53.154Z,62747.53
2023-02-24T14:37:29.892Z,62747.53
2023-02-24T14:40:00.977Z,62747.53
2023-02-24T14:42:30.849Z,62747.53
2023-02-24T14:45:01.890Z,62747.53
2023-02-24T14:47:33.477Z,62747.53
2023-02-24T14:50:03.660Z,62747.53
2023-02-24T14:52:56.166Z,62747.53
2023-02-24T14:55:40.731Z,62747.53
2023-02-24T14:58:18.038Z,62747.53
2023-02-24T15:01:00.716Z,62747.53
2023-02-24T15:03:46.200Z,62747.53
2023-02-24T15:06:30.926Z,62747.53
2023-02-24T15:09:06.049Z,62747.53
2023-02-24T15:11:37.335Z,62747.53
2023-02-24T15:14:19.630Z,62747.53
2023-02-24T15:17:02.022Z,62747.53
2023-02-24T15:19:47.116Z,62747.53
2023-02-24T15:22:24.841Z,62747.53
2023-02-24T15:25:07.965Z,62747.53
2023-02-24T15:27:35.288Z,62747.53
2023-02-24T15:30:38.949Z,62747.53
2023-02-24T15:33:07.253Z,62747.53
2023-02-24T15:35:39.154Z,62747.53
2023-02-24T15:38:06.536Z,62747.53
2023-02-24T15:40:33.664Z,62747.53
2023-02-24T15:43:12.072Z,62747.53
2023-02-24T15:45:40.353Z,62747.53
2023-02-24T15:48:23.534Z,62747.53
2023-02-24T15:50:50.918Z,62747.53
2023-02-24T15:53:18.138Z,62747.53
2023-02-24T15:55:45.776Z,62747.53
2023-02-24T15:58:22.126Z,62747.53
2023-02-24T16:00:52.639Z,62747.53
2023-02-24T16:03:21.979Z,62747.53
2023-02-24T16:05:49.107Z,62747.53
2023-02-24T16:08:22.100Z,62747.53
2023-02-24T16:10:50.595Z,62747.53
2023-02-24T16:13:25.302Z,62747.53
2023-02-24T16:15:56.452Z,62747.53
2023-02-24T16:18:25.118Z,62747.53
2023-02-24T16:20:57.232Z,62747.53
2023-02-24T16:23:26.333Z,62747.53
2023-02-24T16:26:00.002Z,62747.53
2023-02-24T16:28:27.365Z,62747.53
2023-02-24T16:30:57.030Z,62747.53
2023-02-24T16:33:24.553Z,62747.53
2023-02-24T16:35:55.675Z,62747.53
2023-02-24T16:38:26.744Z,62747.53
2023-02-24T16:40:55.213Z,62747.53
2023-02-24T16:43:24.987Z,62747.53
2023-02-24T16:46:01.618Z,62747.53
2023-02-24T16:48:29.619Z,62747.53
2023-02-24T16:50:57.201Z,62747.53
2023-02-24T16:53:27.208Z,62747.53
2023-02-24T16:55:54.502Z,62747.53
2023-02-24T16:58:25.058Z,62747.53
2023-02-24T17:00:59.260Z,62747.53
2023-02-24T17:03:37.729Z,62747.53
2023-02-24T17:06:05.074Z,62747.53
2023-02-24T17:08:32.402Z,62747.53
2023-02-24T17:10:59.616Z,62747.53
2023-02-24T17:13:26.929Z,62747.53
2023-02-24T17:15:57.068Z,62747.53
2023-02-24T17:18:28.291Z,62747.53
2023-02-24T17:20:55.452Z,62747.53
2023-02-24T17:23:22.983Z,62747.53
2023-02-24T17:26:00.863Z,62747.53
2023-02-24T17:28:28.628Z,62747.53
2023-02-24T17:30:56.234Z,62747.53
2023-02-24T17:33:23.455Z,62747.53
2023-02-24T17:35:50.674Z,62747.53
2023-02-24T17:38:21.603Z,62747.53
2023-02-24T17:40:51.099Z,62747.53
2023-02-24T17:43:18.833Z,62747.53
2023-02-24T17:45:47.460Z,62747.53
2023-02-24T17:48:16.289Z,62747.53
2023-02-24T17:50:49.338Z,62747.53
2023-02-24T17:53:16.814Z,62747.53
2023-02-24T17:56:01.064Z,62747.53
2023-02-24T17:58:32.805Z,62747.53
2023-02-24T18:01:09.016Z,62747.53
2023-02-24T18:03:37.113Z,62747.53
2023-02-24T18:06:11.277Z,62747.53
2023-02-24T18:08:39.737Z,62747.53
2023-02-24T18:11:09.953Z,62747.53
2023-02-24T18:13:37.160Z,62747.53
2023-02-24T18:16:15.378Z,62747.53
2023-02-24T18:18:42.603Z,62747.53
2023-02-24T18:21:09.737Z,62747.53
2023-02-24T18:23:40.609Z,62747.53
2023-02-24T18:26:10.632Z,62747.53
2023-02-24T18:28:38.623Z,62747.53
2023-02-24T18:31:19.626Z,62747.53
2023-02-24T18:33:46.910Z,62747.53
2023-02-24T18:36:15.435Z,62747.53
2023-02-24T18:38:44.969Z,62747.53
2023-02-24T18:41:18.343Z,62747.53
2023-02-24T18:43:49.596Z,62747.53
2023-02-24T18:46:17.382Z,62747.53
2023-02-24T18:48:46.072Z,62747.53
2023-02-24T18:51:17.175Z,62747.53
2023-02-24T18:53:45.377Z,62747.53
2023-02-24T18:56:22.411Z,62747.53
2023-02-24T18:58:52.757Z,62747.53
2023-02-24T19:01:35.892Z,62747.53
2023-02-24T19:04:04.698Z,62747.53
2023-02-24T19:06:33.466Z,62747.53
2023-02-24T19:09:06.164Z,62747.53
2023-02-24T19:11:34.295Z,62747.53
2023-02-24T19:14:02.115Z,62747.53
2023-02-24T19:16:29.667Z,62747.53
2023-02-24T19:19:01.139Z,62747.53
2023-02-24T19:21:31.341Z,62747.53
2023-02-24T19:24:08.322Z,62747.53
2023-02-24T19:26:35.752Z,62747.53
2023-02-24T19:29:03.971Z,62747.53
2023-02-24T19:31:33.288Z,62747.53
2023-02-24T19:34:07.148Z,62747.53
2023-02-24T19:36:36.571Z,62747.53
2023-02-24T19:39:06.323Z,62747.53
2023-02-24T19:41:33.594Z,62747.53
2023-02-24T19:44:03.226Z,62747.53
2023-02-24T19:46:34.292Z,62747.53
2023-02-24T19:49:02.563Z,62747.53
2023-02-24T19:51:31.305Z,62747.53
2023-02-24T19:54:03.381Z,62747.53
2023-02-24T19:56:33.340Z,62747.53
2023-02-24T19:59:02.149Z,62747.53
2023-02-24T20:01:30.192Z,62747.53
2023-02-24T20:04:02.726Z,62747.53
2023-02-24T20:06:37.259Z,62747.53
2023-02-24T20:09:11.941Z,62747.53
2023-02-24T20:11:43.696Z,62747.53
2023-02-24T20:14:12.921Z,62747.53
2023-02-24T20:16:46.286Z,62747.53
2023-02-24T20:19:18.132Z,62747.53
2023-02-24T20:21:45.662Z,62747.53
2023-02-24T20:24:17.268Z,62747.53
2023-02-24T20:26:49.992Z,62747.53
2023-02-24T20:29:21.519Z,62747.53
2023-02-24T20:31:52.058Z,62747.53
2023-02-24T20:34:26.902Z,62747.53
2023-02-24T20:36:57.005Z,62747.53
2023-02-24T20:39:24.914Z,62747.53
2023-02-24T20:41:54.632Z,62747.53
2023-02-24T20:44:21.836Z,62747.53
2023-02-24T20:46:49.016Z,62747.53
2023-02-24T20:49:16.252Z,62747.53
2023-02-24T20:51:46.459Z,62747.53
2023-02-24T20:54:14.363Z,62747.53
2023-02-24T20:56:43.797Z,62747.53
2023-02-24T20:59:18.493Z,62747.53
2023-02-24T21:01:47.944Z,62747.53
2023-02-24T21:04:19.119Z,62747.53
2023-02-24T21:06:48.045Z,62747.53
2023-02-24T21:09:16.538Z,62747.53
2023-02-24T21:11:43.707Z,62747.53
2023-02-24T21:17:14.214Z,62747.53
2023-02-24T21:19:43.997Z,62747.53
2023-02-24T21:22:11.187Z,62747.53
2023-02-24T21:24:38.399Z,62747.53
2023-02-24T21:27:05.603Z,62747.53
2023-02-24T21:29:32.782Z,62747.53
2023-02-24T21:32:00.162Z,62747.53
2023-02-24T21:34:27.954Z,62747.53
2023-02-24T21:36:55.081Z,62747.53
2023-02-24T21:39:40.806Z,62747.53
2023-02-24T21:42:07.992Z,62747.53
2023-02-24T21:44:35.036Z,62747.53
2023-02-24T21:47:02.156Z,62747.53
2023-02-24T21:49:30.301Z,62747.53
2023-02-24T21:51:57.467Z,62747.53
2023-02-24T21:54:27.574Z,62747.53
2023-02-24T21:56:57.226Z,62747.53
2023-02-24T21:59:24.301Z,62747.53
2023-02-24T22:01:54.416Z,62747.53
2023-02-24T22:04:21.937Z,62747.53
2023-02-24T22:06:49.186Z,62747.53
2023-02-24T22:09:20.300Z,62747.53
2023-02-24T22:11:49.612Z,62747.53
2023-02-24T22:14:17.616Z,62747.53
2023-02-24T22:16:45.221Z,62747.53
2023-02-24T22:19:12.792Z,62747.53
2023-02-24T22:21:43.435Z,62747.53
2023-02-24T22:24:16.339Z,62747.53
2023-02-24T22:26:46.904Z,62747.53
2023-02-24T22:29:14.050Z,62747.53
2023-02-24T22:31:43.760Z,62747.53
2023-02-24T22:34:11.303Z,62747.53
2023-02-24T22:36:38.430Z,62747.53
2023-02-24T22:39:06.759Z,62747.53
2023-02-24T22:41:38.215Z,62747.53
2023-02-24T22:44:06.556Z,62747.53
2023-02-24T22:46:38.033Z,62747.53
2023-02-24T22:49:06.145Z,62747.53
2023-02-24T22:51:33.484Z,62747.53
2023-02-24T22:54:00.690Z,62747.53
2023-02-24T22:56:31.140Z,62747.53
2023-02-24T22:58:59.278Z,62747.53
2023-02-24T23:01:33.722Z,62747.53
2023-02-24T23:04:08.108Z,62747.53
2023-02-24T23:06:36.717Z,62747.53
2023-02-24T23:09:06.220Z,62747.53
2023-02-24T23:11:41.975Z,62747.53
2023-02-24T23:14:14.359Z,62747.53
2023-02-24T23:16:44.744Z,62747.53
2023-02-24T23:19:16.864Z,62747.53
2023-02-24T23:21:50.432Z,62747.53
2023-02-24T23:24:20.210Z,62747.53
2023-02-24T23:26:57.774Z,62747.53
2023-02-24T23:29:28.185Z,62747.53
2023-02-24T23:31:55.453Z,62747.53
2023-02-24T23:34:25.853Z,62747.53
2023-02-24T23:36:53.206Z,62747.53
2023-02-24T23:39:24.059Z,62747.53
2023-02-24T23:41:56.703Z,62747.53
2023-02-24T23:44:24.652Z,62747.53
2023-02-24T23:46:54.194Z,62747.53
2023-02-24T23:49:21.342Z,62747.53
2023-02-24T23:51:50.950Z,62747.53
2023-02-24T23:54:19.017Z,62747.53
2023-02-24T23:56:46.628Z,62747.53
2023-02-24T23:59:14.597Z,62747.53
